Terminal Aerodrome Forecast
Issued by NWS Tampa Bay Area, FL

Home | Current Version | Previous Version | Text Only | Print | Product List | Glossary On
Versions: 1 2 3 4 5 6 7 8 9 10 11 12 13 14 15 16
000
FTUS42 KTBW 021806 AAA
TAFSRQ
TAF AMD
KSRQ 021806Z 0218/0318 24008KT 6SM SHRA BKN040 OVC120
      TEMPO 0218/0222 2SM TSRA SCT007 BKN025CB
     FM022300 11006KT P6SM VCSH SCT030 BKN050 BKN150
     FM030200 VRB05KT P6SM FEW025 SCT050 BKN250
     FM031200 VRB06KT P6SM FEW035 BKN250=

USA.gov is the U.S. government's official web portal to all federal, state and local government web resources and services.